TimeCST,TemperatureF,Dew PointF,Humidity,Sea Level PressureIn,VisibilityMPH,Wind Direction,Wind SpeedMPH,Gust SpeedMPH,PrecipitationIn,Events,Conditions,WindDirDegrees,DateUTC
12:00 AM,68,66,90,29.85,12,Calm,Calm,,,,Clear,,2013-06-25 06:00:00
12:00 AM,68.0,66.2,94,30.04,-9999.0,Calm,Calm,-,N/A,,Clear,0,2013-06-25 06:00:00
1:00 AM,69.8,60.8,73,30.01,-9999.0,NE,4.6,-,N/A,,Clear,50,2013-06-25 07:00:00
2:00 AM,71.6,60.8,69,30.00,-9999.0,ESE,9.2,-,N/A,,Clear,110,2013-06-25 08:00:00
3:00 AM,69.8,62.6,78,30.00,-9999.0,ENE,4.6,-,N/A,,Clear,60,2013-06-25 09:00:00
4:00 AM,68.0,62.6,83,30.02,-9999.0,North,3.5,-,N/A,,Clear,360,2013-06-25 10:00:00
5:00 AM,66.2,62.6,88,30.02,-9999.0,North,3.5,-,N/A,,Clear,10,2013-06-25 11:00:00
6:00 AM,68.0,62.6,83,30.04,6.2,NNE,2.3,-,N/A,,Scattered Clouds,30,2013-06-25 12:00:00
7:00 AM,75.2,64.4,69,30.05,6.2,Calm,Calm,-,N/A,,Scattered Clouds,0,2013-06-25 13:00:00
8:00 AM,77.0,66.2,69,30.05,6.2,WSW,5.8,-,N/A,,Scattered Clouds,250,2013-06-25 14:00:00
9:00 AM,76,66,64,29.88,12,WSW,9.2,,,,Partly Cloudy,250,2013-06-25 15:00:00
9:00 AM,77.0,66.2,69,30.07,6.2,WSW,9.2,-,N/A,,Scattered Clouds,250,2013-06-25 15:00:00
10:00 AM,75.2,66.2,73,30.07,6.2,WSW,9.2,-,N/A,,Scattered Clouds,250,2013-06-25 16:00:00
11:00 AM,77.0,66.2,69,30.07,6.2,WSW,5.8,-,N/A,,Mostly Cloudy,240,2013-06-25 17:00:00
12:00 PM,78,69,67,29.86,9,SW,6.9,,,,Partly Cloudy,230,2013-06-25 18:00:00
12:00 PM,78.8,69.8,74,30.05,6.2,SW,6.9,-,N/A,,Mostly Cloudy,230,2013-06-25 18:00:00
1:00 PM,73.4,68.0,83,-9999,6.2,WSW,9.2,-,N/A,,Mostly Cloudy,240,2013-06-25 19:00:00
1:20 PM,73.4,68.0,83,30.04,3.1,West,8.1,-,N/A,Rain-Thunderstorm,Thunderstorms and Rain,260,2013-06-25 19:20:00
1:30 PM,71.6,68.0,88,30.05,1.2,SSW,3.5,-,N/A,Rain-Thunderstorm,Thunderstorms and Rain,210,2013-06-25 19:30:00
1:45 PM,73.4,68.0,83,30.04,3.1,SSW,5.8,-,N/A,Rain-Thunderstorm,Light Thunderstorms and Rain,200,2013-06-25 19:45:00
2:00 PM,71.6,69.8,94,30.03,3.1,West,8.1,-,N/A,Rain-Thunderstorm,Light Thunderstorms and Rain,260,2013-06-25 20:00:00
3:00 PM,71,65,74,29.87,12,South,11.5,,,,Overcast,180,2013-06-25 21:00:00
3:00 PM,71.6,64.4,78,30.04,6.2,South,11.5,-,N/A,,Mostly Cloudy,180,2013-06-25 21:00:00
4:00 PM,73.4,64.4,73,30.02,6.2,East,6.9,-,N/A,,Mostly Cloudy,80,2013-06-25 22:00:00
5:00 PM,71.6,60.8,69,30.00,6.2,ESE,15.0,26.5,N/A,,Mostly Cloudy,110,2013-06-25 23:00:00
6:00 PM,70,60,63,29.86,12,ESE,13.8,,,,Overcast,110,2013-06-26 00:00:00
6:00 PM,69.8,60.8,73,29.99,6.2,ESE,13.8,25.3,N/A,,Mostly Cloudy,110,2013-06-26 00:00:00
7:00 PM,69.8,60.8,73,30.01,-9999.0,ESE,12.7,24.2,N/A,,Clear,110,2013-06-26 01:00:00
8:00 PM,69.8,59.0,68,30.02,-9999.0,ESE,13.8,25.3,N/A,,Clear,110,2013-06-26 02:00:00
9:00 PM,70,59,61,29.85,12,ESE,11.5,,,,Clear,110,2013-06-26 03:00:00
9:00 PM,69.8,59.0,68,30.02,-9999.0,ESE,11.5,-,N/A,,Clear,110,2013-06-26 03:00:00
10:00 PM,71.6,59.0,64,30.03,-9999.0,ESE,9.2,-,N/A,,Clear,110,2013-06-26 04:00:00
11:00 PM,71.6,59.0,64,30.01,-9999.0,ESE,9.2,-,N/A,,Clear,110,2013-06-26 05:00:00